Main page
METAR-TAF:

METAR-TAF

Airports :

Mopti Airport

Mopti, Mali

latitude: 14-30-46N, longitude: 004-04-46W, elevation: 276 m

Current weather observation

The report was made 24 minutes ago, at 15:00 UTC
Wind 6 kt from the West
Temperature 31°C
Humidity 66%
Pressure 1011 hPa
Visibility 10 km or more
Few clouds at a height of 2700 ft
Few clouds at a height of 3000 ft, Cumulonimbus.

METAR: GAMB 011500Z 28006KT 9999 FEW027 FEW030CB 31/24 Q1011

Time: 15:24 (15:24 UTC)


TAF: missing

Weather observations and forecasts of more than 4000 airports (METAR and TAF reports).

The available stations are represented by yellow and red dots on the map.

Hover mouse over dot to see the name of the station.

Then click to see weather observations and forecasts.

To change the map : click on the green buttons with a black cross to zoom in, on the green button with a dash to zoom out, or on the green arrows for adjacent maps.


METAR-TAF: